sensor_id;sensor_type;location;lat;lon;timestamp;temperature;humidity
16408;DHT22;8313;49.894;8.084;2022-11-10T00:00:13;10.60;99.90
16408;DHT22;8313;49.894;8.084;2022-11-10T00:03:05;10.60;99.90
16408;DHT22;8313;49.894;8.084;2022-11-10T00:05:49;10.60;99.90
16408;DHT22;8313;49.894;8.084;2022-11-10T00:08:34;10.60;99.90
16408;DHT22;8313;49.894;8.084;2022-11-10T00:11:18;10.50;99.90
16408;DHT22;8313;49.894;8.084;2022-11-10T00:14:02;10.50;99.90
16408;DHT22;8313;49.894;8.084;2022-11-10T00:17:05;10.40;99.90
16408;DHT22;8313;49.894;8.084;2022-11-10T00:19:49;10.40;99.90
16408;DHT22;8313;49.894;8.084;2022-11-10T00:22:34;10.40;99.90
16408;DHT22;8313;49.894;8.084;2022-11-10T00:25:19;10.40;99.90
16408;DHT22;8313;49.894;8.084;2022-11-10T00:28:03;10.40;99.90
16408;DHT22;8313;49.894;8.084;2022-11-10T00:30:47;10.40;99.90
16408;DHT22;8313;49.894;8.084;2022-11-10T00:33:34;10.30;99.90
16408;DHT22;8313;49.894;8.084;2022-11-10T00:36:19;10.30;99.90
16408;DHT22;8313;49.894;8.084;2022-11-10T00:39:03;10.30;99.90
16408;DHT22;8313;49.894;8.084;2022-11-10T00:41:47;10.30;99.90
16408;DHT22;8313;49.894;8.084;2022-11-10T00:44:31;10.30;99.90
16408;DHT22;8313;49.894;8.084;2022-11-10T00:47:16;10.30;99.90
16408;DHT22;8313;49.894;8.084;2022-11-10T00:50:00;10.30;99.90
16408;DHT22;8313;49.894;8.084;2022-11-10T00:52:44;10.30;99.90
16408;DHT22;8313;49.894;8.084;2022-11-10T00:55:29;10.30;99.90
16408;DHT22;8313;49.894;8.084;2022-11-10T00:58:12;10.20;99.90
16408;DHT22;8313;49.894;8.084;2022-11-10T01:01:01;10.20;99.90
16408;DHT22;8313;49.894;8.084;2022-11-10T01:03:46;10.20;99.90
16408;DHT22;8313;49.894;8.084;2022-11-10T01:06:30;10.20;99.90
16408;DHT22;8313;49.894;8.084;2022-11-10T01:09:14;10.20;99.90
16408;DHT22;8313;49.894;8.084;2022-11-10T01:11:59;10.20;99.90
16408;DHT22;8313;49.894;8.084;2022-11-10T01:14:43;10.20;99.90
16408;DHT22;8313;49.894;8.084;2022-11-10T01:17:30;10.20;99.90
16408;DHT22;8313;49.894;8.084;2022-11-10T01:20:14;10.20;99.90
16408;DHT22;8313;49.894;8.084;2022-11-10T01:22:58;10.20;99.90
16408;DHT22;8313;49.894;8.084;2022-11-10T01:25:42;10.20;99.90
16408;DHT22;8313;49.894;8.084;2022-11-10T01:28:26;10.20;99.90
16408;DHT22;8313;49.894;8.084;2022-11-10T01:31:13;10.20;99.90
16408;DHT22;8313;49.894;8.084;2022-11-10T01:33:58;10.20;99.90
16408;DHT22;8313;49.894;8.084;2022-11-10T01:36:43;10.30;99.90
16408;DHT22;8313;49.894;8.084;2022-11-10T01:39:27;10.30;99.90
16408;DHT22;8313;49.894;8.084;2022-11-10T01:42:11;10.20;99.90
16408;DHT22;8313;49.894;8.084;2022-11-10T01:48:06;10.20;99.90
16408;DHT22;8313;49.894;8.084;2022-11-10T01:50:52;10.20;99.90
16408;DHT22;8313;49.894;8.084;2022-11-10T01:53:40;10.20;99.90
16408;DHT22;8313;49.894;8.084;2022-11-10T01:56:29;10.10;99.90
16408;DHT22;8313;49.894;8.084;2022-11-10T01:59:17;10.20;99.90
16408;DHT22;8313;49.894;8.084;2022-11-10T02:02:23;10.10;99.90
16408;DHT22;8313;49.894;8.084;2022-11-10T02:05:09;10.10;99.90
16408;DHT22;8313;49.894;8.084;2022-11-10T02:07:55;10.10;99.90
16408;DHT22;8313;49.894;8.084;2022-11-10T02:10:39;10.10;99.90
16408;DHT22;8313;49.894;8.084;2022-11-10T02:13:24;10.00;99.90
16408;DHT22;8313;49.894;8.084;2022-11-10T02:16:09;10.00;99.90
16408;DHT22;8313;49.894;8.084;2022-11-10T02:18:54;10.00;99.90
16408;DHT22;8313;49.894;8.084;2022-11-10T02:21:38;10.00;99.90
16408;DHT22;8313;49.894;8.084;2022-11-10T02:24:22;10.00;99.90
16408;DHT22;8313;49.894;8.084;2022-11-10T02:27:06;10.00;99.90
16408;DHT22;8313;49.894;8.084;2022-11-10T02:29:51;10.00;99.90
16408;DHT22;8313;49.894;8.084;2022-11-10T02:32:35;9.90;99.90
16408;DHT22;8313;49.894;8.084;2022-11-10T02:35:19;9.90;99.90
16408;DHT22;8313;49.894;8.084;2022-11-10T02:38:03;9.90;99.90
16408;DHT22;8313;49.894;8.084;2022-11-10T02:40:50;9.90;99.90
16408;DHT22;8313;49.894;8.084;2022-11-10T02:43:36;9.90;99.90
16408;DHT22;8313;49.894;8.084;2022-11-10T02:46:20;9.90;99.90
16408;DHT22;8313;49.894;8.084;2022-11-10T02:49:04;9.90;99.90
16408;DHT22;8313;49.894;8.084;2022-11-10T02:51:48;9.80;99.90
16408;DHT22;8313;49.894;8.084;2022-11-10T02:54:32;9.80;99.90
16408;DHT22;8313;49.894;8.084;2022-11-10T02:57:16;9.80;99.90
16408;DHT22;8313;49.894;8.084;2022-11-10T03:00:00;9.80;99.90
16408;DHT22;8313;49.894;8.084;2022-11-10T03:02:45;9.80;99.90
16408;DHT22;8313;49.894;8.084;2022-11-10T03:05:30;9.80;99.90
16408;DHT22;8313;49.894;8.084;2022-11-10T03:08:14;9.80;99.90
16408;DHT22;8313;49.894;8.084;2022-11-10T03:10:59;9.80;99.90
16408;DHT22;8313;49.894;8.084;2022-11-10T03:13:43;9.80;99.90
16408;DHT22;8313;49.894;8.084;2022-11-10T03:16:27;9.80;99.90
16408;DHT22;8313;49.894;8.084;2022-11-10T03:19:11;9.80;99.90
16408;DHT22;8313;49.894;8.084;2022-11-10T03:21:55;9.70;99.90
16408;DHT22;8313;49.894;8.084;2022-11-10T03:24:40;9.70;99.90
16408;DHT22;8313;49.894;8.084;2022-11-10T03:27:24;9.70;99.90
16408;DHT22;8313;49.894;8.084;2022-11-10T03:30:08;9.70;99.90
16408;DHT22;8313;49.894;8.084;2022-11-10T03:32:53;9.70;99.90
16408;DHT22;8313;49.894;8.084;2022-11-10T03:35:37;9.70;99.90
16408;DHT22;8313;49.894;8.084;2022-11-10T03:38:21;9.60;99.90
16408;DHT22;8313;49.894;8.084;2022-11-10T03:41:05;9.60;99.90
16408;DHT22;8313;49.894;8.084;2022-11-10T03:43:49;9.60;99.90
16408;DHT22;8313;49.894;8.084;2022-11-10T03:46:34;9.60;99.90
16408;DHT22;8313;49.894;8.084;2022-11-10T03:49:18;9.50;99.90
16408;DHT22;8313;49.894;8.084;2022-11-10T03:52:02;9.50;99.90
16408;DHT22;8313;49.894;8.084;2022-11-10T03:54:46;9.50;99.90
16408;DHT22;8313;49.894;8.084;2022-11-10T03:57:30;9.50;99.90
16408;DHT22;8313;49.894;8.084;2022-11-10T04:00:14;9.60;99.90
16408;DHT22;8313;49.894;8.084;2022-11-10T04:02:59;9.60;99.90
16408;DHT22;8313;49.894;8.084;2022-11-10T04:05:43;9.60;99.90
16408;DHT22;8313;49.894;8.084;2022-11-10T04:08:46;9.70;99.90
16408;DHT22;8313;49.894;8.084;2022-11-10T04:11:42;9.70;99.90
16408;DHT22;8313;49.894;8.084;2022-11-10T04:14:45;9.70;99.90
16408;DHT22;8313;49.894;8.084;2022-11-10T04:17:49;9.70;99.90
16408;DHT22;8313;49.894;8.084;2022-11-10T04:20:33;9.70;99.90
16408;DHT22;8313;49.894;8.084;2022-11-10T04:23:18;9.70;99.90
16408;DHT22;8313;49.894;8.084;2022-11-10T04:26:13;9.70;99.90
16408;DHT22;8313;49.894;8.084;2022-11-10T04:29:17;9.70;99.90
16408;DHT22;8313;49.894;8.084;2022-11-10T04:32:01;9.70;99.90
16408;DHT22;8313;49.894;8.084;2022-11-10T04:34:45;9.70;99.90
16408;DHT22;8313;49.894;8.084;2022-11-10T04:37:29;9.70;99.90
16408;DHT22;8313;49.894;8.084;2022-11-10T04:40:14;9.70;99.90
16408;DHT22;8313;49.894;8.084;2022-11-10T04:42:58;9.70;99.90
16408;DHT22;8313;49.894;8.084;2022-11-10T04:45:42;9.70;99.90
16408;DHT22;8313;49.894;8.084;2022-11-10T04:48:27;9.70;99.90
16408;DHT22;8313;49.894;8.084;2022-11-10T04:51:13;9.60;99.90
16408;DHT22;8313;49.894;8.084;2022-11-10T04:53:57;9.60;99.90
16408;DHT22;8313;49.894;8.084;2022-11-10T04:56:42;9.50;99.90
16408;DHT22;8313;49.894;8.084;2022-11-10T04:59:26;9.50;99.90
16408;DHT22;8313;49.894;8.084;2022-11-10T05:02:10;9.50;99.90
16408;DHT22;8313;49.894;8.084;2022-11-10T05:04:54;9.50;99.90
16408;DHT22;8313;49.894;8.084;2022-11-10T05:07:38;9.40;99.90
16408;DHT22;8313;49.894;8.084;2022-11-10T05:10:23;9.30;99.90
16408;DHT22;8313;49.894;8.084;2022-11-10T05:13:07;9.30;99.90
16408;DHT22;8313;49.894;8.084;2022-11-10T05:15:51;9.20;99.90
16408;DHT22;8313;49.894;8.084;2022-11-10T05:18:36;9.20;99.90
16408;DHT22;8313;49.894;8.084;2022-11-10T05:21:21;9.20;99.90
16408;DHT22;8313;49.894;8.084;2022-11-10T05:24:05;9.20;99.90
16408;DHT22;8313;49.894;8.084;2022-11-10T05:26:49;9.10;99.90
16408;DHT22;8313;49.894;8.084;2022-11-10T05:29:33;9.20;99.90
16408;DHT22;8313;49.894;8.084;2022-11-10T05:32:17;9.20;99.90
16408;DHT22;8313;49.894;8.084;2022-11-10T05:35:01;9.10;99.90
16408;DHT22;8313;49.894;8.084;2022-11-10T05:37:46;9.10;99.90
16408;DHT22;8313;49.894;8.084;2022-11-10T05:40:30;9.20;99.90
16408;DHT22;8313;49.894;8.084;2022-11-10T05:43:14;9.20;99.90
16408;DHT22;8313;49.894;8.084;2022-11-10T05:45:59;9.20;99.90
16408;DHT22;8313;49.894;8.084;2022-11-10T05:48:43;9.10;99.90
16408;DHT22;8313;49.894;8.084;2022-11-10T05:51:27;9.10;99.90
16408;DHT22;8313;49.894;8.084;2022-11-10T05:54:11;9.10;99.90
16408;DHT22;8313;49.894;8.084;2022-11-10T05:56:55;9.10;99.90
16408;DHT22;8313;49.894;8.084;2022-11-10T05:59:40;9.10;99.90
16408;DHT22;8313;49.894;8.084;2022-11-10T06:02:24;9.00;99.90
16408;DHT22;8313;49.894;8.084;2022-11-10T06:05:09;9.00;99.90
16408;DHT22;8313;49.894;8.084;2022-11-10T06:07:53;9.00;99.90
16408;DHT22;8313;49.894;8.084;2022-11-10T06:10:38;9.00;99.90
16408;DHT22;8313;49.894;8.084;2022-11-10T06:13:23;8.90;99.90
16408;DHT22;8313;49.894;8.084;2022-11-10T06:16:08;8.90;99.90
16408;DHT22;8313;49.894;8.084;2022-11-10T06:18:52;8.90;99.90
16408;DHT22;8313;49.894;8.084;2022-11-10T06:21:36;8.80;99.90
16408;DHT22;8313;49.894;8.084;2022-11-10T06:24:20;8.80;99.90
16408;DHT22;8313;49.894;8.084;2022-11-10T06:27:05;8.80;99.90
16408;DHT22;8313;49.894;8.084;2022-11-10T06:29:49;8.80;99.90
16408;DHT22;8313;49.894;8.084;2022-11-10T06:32:33;8.80;99.90
16408;DHT22;8313;49.894;8.084;2022-11-10T06:35:19;8.80;99.90
16408;DHT22;8313;49.894;8.084;2022-11-10T06:38:04;8.70;99.90
16408;DHT22;8313;49.894;8.084;2022-11-10T06:40:49;8.70;99.90
16408;DHT22;8313;49.894;8.084;2022-11-10T06:43:33;8.70;99.90
16408;DHT22;8313;49.894;8.084;2022-11-10T06:46:17;8.70;99.90
16408;DHT22;8313;49.894;8.084;2022-11-10T06:49:01;8.70;99.90
16408;DHT22;8313;49.894;8.084;2022-11-10T06:51:46;8.70;99.90
16408;DHT22;8313;49.894;8.084;2022-11-10T06:54:30;8.70;99.90
16408;DHT22;8313;49.894;8.084;2022-11-10T06:57:14;8.60;99.90
16408;DHT22;8313;49.894;8.084;2022-11-10T06:59:58;8.60;99.90
16408;DHT22;8313;49.894;8.084;2022-11-10T07:02:42;8.60;99.90
16408;DHT22;8313;49.894;8.084;2022-11-10T07:05:27;8.60;99.90
16408;DHT22;8313;49.894;8.084;2022-11-10T07:08:14;8.60;99.90
16408;DHT22;8313;49.894;8.084;2022-11-10T07:10:59;8.60;99.90
16408;DHT22;8313;49.894;8.084;2022-11-10T07:13:43;8.60;99.90
16408;DHT22;8313;49.894;8.084;2022-11-10T07:16:27;8.70;99.90
16408;DHT22;8313;49.894;8.084;2022-11-10T07:19:12;8.70;99.90
16408;DHT22;8313;49.894;8.084;2022-11-10T07:21:56;8.70;99.90
16408;DHT22;8313;49.894;8.084;2022-11-10T07:24:40;8.70;99.90
16408;DHT22;8313;49.894;8.084;2022-11-10T07:27:24;8.80;99.90
16408;DHT22;8313;49.894;8.084;2022-11-10T07:30:09;8.80;99.90
16408;DHT22;8313;49.894;8.084;2022-11-10T07:33:03;8.80;99.90
16408;DHT22;8313;49.894;8.084;2022-11-10T07:35:55;8.90;99.90
16408;DHT22;8313;49.894;8.084;2022-11-10T07:38:40;8.90;99.90
16408;DHT22;8313;49.894;8.084;2022-11-10T07:41:24;9.00;99.90
16408;DHT22;8313;49.894;8.084;2022-11-10T07:44:09;9.00;99.90
16408;DHT22;8313;49.894;8.084;2022-11-10T07:46:53;9.10;99.90
16408;DHT22;8313;49.894;8.084;2022-11-10T07:49:37;9.10;99.90
16408;DHT22;8313;49.894;8.084;2022-11-10T07:52:21;9.20;99.90
16408;DHT22;8313;49.894;8.084;2022-11-10T07:55:06;9.20;99.90
16408;DHT22;8313;49.894;8.084;2022-11-10T07:57:50;9.30;99.90
16408;DHT22;8313;49.894;8.084;2022-11-10T08:00:39;9.30;99.90
16408;DHT22;8313;49.894;8.084;2022-11-10T08:03:24;9.40;99.90
16408;DHT22;8313;49.894;8.084;2022-11-10T08:06:08;9.50;99.90
16408;DHT22;8313;49.894;8.084;2022-11-10T08:08:53;9.50;99.90
16408;DHT22;8313;49.894;8.084;2022-11-10T08:11:37;9.50;99.90
16408;DHT22;8313;49.894;8.084;2022-11-10T08:14:21;9.60;99.90
16408;DHT22;8313;49.894;8.084;2022-11-10T08:17:05;9.70;99.90
16408;DHT22;8313;49.894;8.084;2022-11-10T08:19:49;9.70;99.90
16408;DHT22;8313;49.894;8.084;2022-11-10T08:22:34;9.80;99.90
16408;DHT22;8313;49.894;8.084;2022-11-10T08:25:18;9.90;99.90
16408;DHT22;8313;49.894;8.084;2022-11-10T08:28:10;9.90;99.90
16408;DHT22;8313;49.894;8.084;2022-11-10T08:30:55;9.90;99.90
16408;DHT22;8313;49.894;8.084;2022-11-10T08:33:39;9.90;99.90
16408;DHT22;8313;49.894;8.084;2022-11-10T08:36:24;10.00;99.90
16408;DHT22;8313;49.894;8.084;2022-11-10T08:39:08;10.10;99.90
16408;DHT22;8313;49.894;8.084;2022-11-10T08:41:52;10.20;99.90
16408;DHT22;8313;49.894;8.084;2022-11-10T08:44:36;10.20;99.90
16408;DHT22;8313;49.894;8.084;2022-11-10T08:47:20;10.30;99.90
16408;DHT22;8313;49.894;8.084;2022-11-10T08:50:06;10.40;99.90
16408;DHT22;8313;49.894;8.084;2022-11-10T08:52:50;10.40;99.90
16408;DHT22;8313;49.894;8.084;2022-11-10T08:55:34;10.50;99.90
16408;DHT22;8313;49.894;8.084;2022-11-10T08:58:21;10.60;99.90
16408;DHT22;8313;49.894;8.084;2022-11-10T09:01:09;10.60;99.90
16408;DHT22;8313;49.894;8.084;2022-11-10T09:03:54;10.70;99.90
16408;DHT22;8313;49.894;8.084;2022-11-10T09:06:38;10.70;99.90
16408;DHT22;8313;49.894;8.084;2022-11-10T09:09:25;10.80;99.90
16408;DHT22;8313;49.894;8.084;2022-11-10T09:12:10;10.90;99.90
16408;DHT22;8313;49.894;8.084;2022-11-10T09:14:54;10.90;99.90
16408;DHT22;8313;49.894;8.084;2022-11-10T09:17:39;10.90;99.90
16408;DHT22;8313;49.894;8.084;2022-11-10T09:20:24;11.00;99.90
16408;DHT22;8313;49.894;8.084;2022-11-10T09:23:13;11.10;99.90
16408;DHT22;8313;49.894;8.084;2022-11-10T09:25:58;11.30;99.90
16408;DHT22;8313;49.894;8.084;2022-11-10T09:28:42;11.40;99.90
16408;DHT22;8313;49.894;8.084;2022-11-10T09:31:26;11.40;99.90
16408;DHT22;8313;49.894;8.084;2022-11-10T09:34:10;11.50;99.90
16408;DHT22;8313;49.894;8.084;2022-11-10T09:36:54;11.50;99.90
16408;DHT22;8313;49.894;8.084;2022-11-10T09:39:39;11.60;99.90
16408;DHT22;8313;49.894;8.084;2022-11-10T09:45:23;11.70;99.90
16408;DHT22;8313;49.894;8.084;2022-11-10T09:53:50;11.80;99.90
16408;DHT22;8313;49.894;8.084;2022-11-10T09:56:35;11.90;99.90
16408;DHT22;8313;49.894;8.084;2022-11-10T09:59:28;12.00;99.90
16408;DHT22;8313;49.894;8.084;2022-11-10T10:02:28;12.00;99.90
16408;DHT22;8313;49.894;8.084;2022-11-10T10:11:40;12.30;99.90
16408;DHT22;8313;49.894;8.084;2022-11-10T10:23:54;12.40;99.90
16408;DHT22;8313;49.894;8.084;2022-11-10T10:26:53;12.40;99.90
16408;DHT22;8313;49.894;8.084;2022-11-10T10:29:44;12.40;99.90
16408;DHT22;8313;49.894;8.084;2022-11-10T10:32:29;12.60;99.90
16408;DHT22;8313;49.894;8.084;2022-11-10T10:35:15;12.60;99.90
16408;DHT22;8313;49.894;8.084;2022-11-10T10:38:01;12.60;99.90
16408;DHT22;8313;49.894;8.084;2022-11-10T10:40:49;12.70;99.90
16408;DHT22;8313;49.894;8.084;2022-11-10T10:43:34;12.70;99.90
16408;DHT22;8313;49.894;8.084;2022-11-10T10:46:18;12.80;99.90
16408;DHT22;8313;49.894;8.084;2022-11-10T10:49:19;12.80;99.90
16408;DHT22;8313;49.894;8.084;2022-11-10T10:52:15;12.80;99.90
16408;DHT22;8313;49.894;8.084;2022-11-10T10:55:01;12.80;99.90
16408;DHT22;8313;49.894;8.084;2022-11-10T10:58:17;12.90;99.90
16408;DHT22;8313;49.894;8.084;2022-11-10T11:01:03;13.10;99.90
16408;DHT22;8313;49.894;8.084;2022-11-10T11:03:50;13.20;99.90
16408;DHT22;8313;49.894;8.084;2022-11-10T11:06:35;13.30;99.90
16408;DHT22;8313;49.894;8.084;2022-11-10T11:09:23;13.30;99.90
16408;DHT22;8313;49.894;8.084;2022-11-10T11:12:13;13.30;99.90
16408;DHT22;8313;49.894;8.084;2022-11-10T11:15:17;13.30;99.90
16408;DHT22;8313;49.894;8.084;2022-11-10T11:18:13;13.30;99.90
16408;DHT22;8313;49.894;8.084;2022-11-10T11:24:03;13.40;99.90
16408;DHT22;8313;49.894;8.084;2022-11-10T11:27:03;13.60;99.90
16408;DHT22;8313;49.894;8.084;2022-11-10T11:30:11;13.60;99.90
16408;DHT22;8313;49.894;8.084;2022-11-10T11:33:05;13.70;99.90
16408;DHT22;8313;49.894;8.084;2022-11-10T11:51:39;14.20;99.90
16408;DHT22;8313;49.894;8.084;2022-11-10T12:00:48;14.30;99.90
16408;DHT22;8313;49.894;8.084;2022-11-10T12:03:59;14.20;99.90
16408;DHT22;8313;49.894;8.084;2022-11-10T12:16:28;14.60;99.90
16408;DHT22;8313;49.894;8.084;2022-11-10T12:30:59;14.90;99.90
16408;DHT22;8313;49.894;8.084;2022-11-10T12:33:58;14.90;99.90
16408;DHT22;8313;49.894;8.084;2022-11-10T12:36:45;15.00;99.90
16408;DHT22;8313;49.894;8.084;2022-11-10T12:39:37;14.90;99.90
16408;DHT22;8313;49.894;8.084;2022-11-10T12:42:26;14.90;99.90
16408;DHT22;8313;49.894;8.084;2022-11-10T12:48:11;14.90;99.90
16408;DHT22;8313;49.894;8.084;2022-11-10T12:51:05;14.90;99.90
16408;DHT22;8313;49.894;8.084;2022-11-10T12:53:52;15.00;99.90
16408;DHT22;8313;49.894;8.084;2022-11-10T12:56:39;15.00;99.90
16408;DHT22;8313;49.894;8.084;2022-11-10T12:59:29;15.00;99.90
16408;DHT22;8313;49.894;8.084;2022-11-10T13:02:23;15.00;99.90
16408;DHT22;8313;49.894;8.084;2022-11-10T13:05:30;14.90;99.90
16408;DHT22;8313;49.894;8.084;2022-11-10T13:11:29;14.90;99.90
16408;DHT22;8313;49.894;8.084;2022-11-10T13:17:10;14.90;99.90
16408;DHT22;8313;49.894;8.084;2022-11-10T13:19:58;14.90;99.90
16408;DHT22;8313;49.894;8.084;2022-11-10T13:22:45;15.00;99.90
16408;DHT22;8313;49.894;8.084;2022-11-10T13:34:29;15.00;99.90
16408;DHT22;8313;49.894;8.084;2022-11-10T13:43:24;15.00;99.90
16408;DHT22;8313;49.894;8.084;2022-11-10T13:46:08;14.90;99.90
16408;DHT22;8313;49.894;8.084;2022-11-10T14:03:06;14.90;99.90
16408;DHT22;8313;49.894;8.084;2022-11-10T14:06:02;14.90;99.90
16408;DHT22;8313;49.894;8.084;2022-11-10T14:15:14;14.90;99.90
16408;DHT22;8313;49.894;8.084;2022-11-10T14:18:00;14.80;99.90
16408;DHT22;8313;49.894;8.084;2022-11-10T14:20:46;14.80;99.90
16408;DHT22;8313;49.894;8.084;2022-11-10T14:23:42;14.80;99.90
16408;DHT22;8313;49.894;8.084;2022-11-10T14:26:40;14.80;99.90
16408;DHT22;8313;49.894;8.084;2022-11-10T14:29:29;14.80;99.90
16408;DHT22;8313;49.894;8.084;2022-11-10T14:32:20;14.80;99.90
16408;DHT22;8313;49.894;8.084;2022-11-10T14:35:05;14.80;99.90
16408;DHT22;8313;49.894;8.084;2022-11-10T14:38:00;14.70;99.90
16408;DHT22;8313;49.894;8.084;2022-11-10T14:40:46;14.70;99.90
16408;DHT22;8313;49.894;8.084;2022-11-10T14:43:36;14.70;99.90
16408;DHT22;8313;49.894;8.084;2022-11-10T14:46:23;14.60;99.90
16408;DHT22;8313;49.894;8.084;2022-11-10T14:49:09;14.50;99.90
16408;DHT22;8313;49.894;8.084;2022-11-10T14:51:56;14.50;99.90
16408;DHT22;8313;49.894;8.084;2022-11-10T14:54:43;14.40;99.90
16408;DHT22;8313;49.894;8.084;2022-11-10T14:57:28;14.40;99.90
16408;DHT22;8313;49.894;8.084;2022-11-10T15:00:16;14.40;99.90
16408;DHT22;8313;49.894;8.084;2022-11-10T15:03:02;14.30;99.90
16408;DHT22;8313;49.894;8.084;2022-11-10T15:05:48;14.20;99.90
16408;DHT22;8313;49.894;8.084;2022-11-10T15:08:32;14.20;99.90
16408;DHT22;8313;49.894;8.084;2022-11-10T15:11:40;14.20;99.90
16408;DHT22;8313;49.894;8.084;2022-11-10T15:17:43;14.10;99.90
16408;DHT22;8313;49.894;8.084;2022-11-10T15:23:29;14.00;99.90
16408;DHT22;8313;49.894;8.084;2022-11-10T15:26:22;14.00;99.90
16408;DHT22;8313;49.894;8.084;2022-11-10T15:29:27;13.90;99.90
16408;DHT22;8313;49.894;8.084;2022-11-10T15:32:17;13.90;99.90
16408;DHT22;8313;49.894;8.084;2022-11-10T15:35:10;13.90;99.90
16408;DHT22;8313;49.894;8.084;2022-11-10T15:38:17;13.80;99.90
16408;DHT22;8313;49.894;8.084;2022-11-10T15:41:11;13.80;99.90
16408;DHT22;8313;49.894;8.084;2022-11-10T15:43:56;13.80;99.90
16408;DHT22;8313;49.894;8.084;2022-11-10T15:46:40;13.70;99.90
16408;DHT22;8313;49.894;8.084;2022-11-10T15:49:29;13.70;99.90
16408;DHT22;8313;49.894;8.084;2022-11-10T15:52:18;13.70;99.90
16408;DHT22;8313;49.894;8.084;2022-11-10T15:55:03;13.70;99.90
16408;DHT22;8313;49.894;8.084;2022-11-10T15:57:47;13.50;99.90
16408;DHT22;8313;49.894;8.084;2022-11-10T16:00:31;13.40;99.90
16408;DHT22;8313;49.894;8.084;2022-11-10T16:03:19;13.30;99.90
16408;DHT22;8313;49.894;8.084;2022-11-10T16:06:04;13.20;99.90
16408;DHT22;8313;49.894;8.084;2022-11-10T16:08:48;13.10;99.90
16408;DHT22;8313;49.894;8.084;2022-11-10T16:11:36;13.00;99.90
16408;DHT22;8313;49.894;8.084;2022-11-10T16:14:20;13.00;99.90
16408;DHT22;8313;49.894;8.084;2022-11-10T16:17:07;13.00;99.90
16408;DHT22;8313;49.894;8.084;2022-11-10T16:19:51;12.90;99.90
16408;DHT22;8313;49.894;8.084;2022-11-10T16:22:35;12.80;99.90
16408;DHT22;8313;49.894;8.084;2022-11-10T16:25:20;12.70;99.90
16408;DHT22;8313;49.894;8.084;2022-11-10T16:28:04;12.70;99.90
16408;DHT22;8313;49.894;8.084;2022-11-10T16:30:50;12.60;99.90
16408;DHT22;8313;49.894;8.084;2022-11-10T16:33:34;12.50;99.90
16408;DHT22;8313;49.894;8.084;2022-11-10T16:36:28;12.50;99.90
16408;DHT22;8313;49.894;8.084;2022-11-10T16:39:15;12.40;99.90
16408;DHT22;8313;49.894;8.084;2022-11-10T16:41:59;12.30;99.90
16408;DHT22;8313;49.894;8.084;2022-11-10T16:44:43;12.20;99.90
16408;DHT22;8313;49.894;8.084;2022-11-10T16:47:27;12.20;99.90
16408;DHT22;8313;49.894;8.084;2022-11-10T16:50:29;12.10;99.90
16408;DHT22;8313;49.894;8.084;2022-11-10T16:53:16;12.00;99.90
16408;DHT22;8313;49.894;8.084;2022-11-10T16:56:00;12.00;99.90
16408;DHT22;8313;49.894;8.084;2022-11-10T16:58:44;11.80;99.90
16408;DHT22;8313;49.894;8.084;2022-11-10T17:01:30;11.80;99.90
16408;DHT22;8313;49.894;8.084;2022-11-10T17:04:16;11.80;99.90
16408;DHT22;8313;49.894;8.084;2022-11-10T17:07:01;11.70;99.90
16408;DHT22;8313;49.894;8.084;2022-11-10T17:09:45;11.70;99.90
16408;DHT22;8313;49.894;8.084;2022-11-10T17:12:29;11.60;99.90
16408;DHT22;8313;49.894;8.084;2022-11-10T17:15:13;11.50;99.90
16408;DHT22;8313;49.894;8.084;2022-11-10T17:17:59;11.50;99.90
16408;DHT22;8313;49.894;8.084;2022-11-10T17:20:47;11.50;99.90
16408;DHT22;8313;49.894;8.084;2022-11-10T17:23:32;11.40;99.90
16408;DHT22;8313;49.894;8.084;2022-11-10T17:26:18;11.40;99.90
16408;DHT22;8313;49.894;8.084;2022-11-10T17:29:03;11.40;99.90
16408;DHT22;8313;49.894;8.084;2022-11-10T17:31:47;11.30;99.90
16408;DHT22;8313;49.894;8.084;2022-11-10T17:34:33;11.20;99.90
16408;DHT22;8313;49.894;8.084;2022-11-10T17:37:17;11.10;99.90
16408;DHT22;8313;49.894;8.084;2022-11-10T17:40:16;11.00;99.90
16408;DHT22;8313;49.894;8.084;2022-11-10T17:43:01;11.00;99.90
16408;DHT22;8313;49.894;8.084;2022-11-10T17:45:45;10.90;99.90
16408;DHT22;8313;49.894;8.084;2022-11-10T17:48:29;10.80;99.90
16408;DHT22;8313;49.894;8.084;2022-11-10T17:51:18;10.80;99.90
16408;DHT22;8313;49.894;8.084;2022-11-10T17:54:03;10.70;99.90
16408;DHT22;8313;49.894;8.084;2022-11-10T17:56:48;10.70;99.90
16408;DHT22;8313;49.894;8.084;2022-11-10T17:59:32;10.60;99.90
16408;DHT22;8313;49.894;8.084;2022-11-10T18:02:16;10.60;99.90
16408;DHT22;8313;49.894;8.084;2022-11-10T18:05:00;10.60;99.90
16408;DHT22;8313;49.894;8.084;2022-11-10T18:07:48;10.60;99.90
16408;DHT22;8313;49.894;8.084;2022-11-10T18:10:33;10.60;99.90
16408;DHT22;8313;49.894;8.084;2022-11-10T18:13:18;10.70;99.90
16408;DHT22;8313;49.894;8.084;2022-11-10T18:16:02;10.70;99.90
16408;DHT22;8313;49.894;8.084;2022-11-10T18:18:46;10.80;99.90
16408;DHT22;8313;49.894;8.084;2022-11-10T18:21:30;10.80;99.90
16408;DHT22;8313;49.894;8.084;2022-11-10T18:24:14;10.90;99.90
16408;DHT22;8313;49.894;8.084;2022-11-10T18:26:59;10.90;99.90
16408;DHT22;8313;49.894;8.084;2022-11-10T18:29:43;10.90;99.90
16408;DHT22;8313;49.894;8.084;2022-11-10T18:32:27;10.90;99.90
16408;DHT22;8313;49.894;8.084;2022-11-10T18:35:11;10.90;99.90
16408;DHT22;8313;49.894;8.084;2022-11-10T18:37:57;10.90;99.90
16408;DHT22;8313;49.894;8.084;2022-11-10T18:40:41;10.90;99.90
16408;DHT22;8313;49.894;8.084;2022-11-10T18:43:26;11.00;99.90
16408;DHT22;8313;49.894;8.084;2022-11-10T18:46:10;10.90;99.90
16408;DHT22;8313;49.894;8.084;2022-11-10T18:48:54;10.90;99.90
16408;DHT22;8313;49.894;8.084;2022-11-10T18:51:38;10.90;99.90
16408;DHT22;8313;49.894;8.084;2022-11-10T18:54:23;10.90;99.90
16408;DHT22;8313;49.894;8.084;2022-11-10T18:57:10;11.00;99.90
16408;DHT22;8313;49.894;8.084;2022-11-10T18:59:55;11.00;99.90
16408;DHT22;8313;49.894;8.084;2022-11-10T19:02:40;10.80;99.90
16408;DHT22;8313;49.894;8.084;2022-11-10T19:05:25;10.70;99.90
16408;DHT22;8313;49.894;8.084;2022-11-10T19:08:09;10.60;99.90
16408;DHT22;8313;49.894;8.084;2022-11-10T19:10:54;10.60;99.90
16408;DHT22;8313;49.894;8.084;2022-11-10T19:13:39;10.70;99.90
16408;DHT22;8313;49.894;8.084;2022-11-10T19:16:23;10.70;99.90
16408;DHT22;8313;49.894;8.084;2022-11-10T19:19:09;10.70;99.90
16408;DHT22;8313;49.894;8.084;2022-11-10T19:21:53;10.70;99.90
16408;DHT22;8313;49.894;8.084;2022-11-10T19:24:37;10.70;99.90
16408;DHT22;8313;49.894;8.084;2022-11-10T19:27:22;10.70;99.90
16408;DHT22;8313;49.894;8.084;2022-11-10T19:30:07;10.80;99.90
16408;DHT22;8313;49.894;8.084;2022-11-10T19:32:51;10.80;99.90
16408;DHT22;8313;49.894;8.084;2022-11-10T19:35:40;10.70;99.90
16408;DHT22;8313;49.894;8.084;2022-11-10T19:38:24;10.70;99.90
16408;DHT22;8313;49.894;8.084;2022-11-10T19:41:24;10.70;99.90
16408;DHT22;8313;49.894;8.084;2022-11-10T19:44:08;10.70;99.90
16408;DHT22;8313;49.894;8.084;2022-11-10T19:46:52;10.60;99.90
16408;DHT22;8313;49.894;8.084;2022-11-10T19:49:36;10.60;99.90
16408;DHT22;8313;49.894;8.084;2022-11-10T19:52:21;10.60;99.90
16408;DHT22;8313;49.894;8.084;2022-11-10T19:55:06;10.60;99.90
16408;DHT22;8313;49.894;8.084;2022-11-10T19:57:50;10.60;99.90
16408;DHT22;8313;49.894;8.084;2022-11-10T20:00:34;10.60;99.90